sensor_id;sensor_type;location;lat;lon;timestamp;P1;durP1;ratioP1;P2;durP2;ratioP2
18738;SDS011;9498;51.862;19.460;2022-09-29T00:01:00;25.63;;;12.33;;
18738;SDS011;9498;51.862;19.460;2022-09-29T00:03:28;26.07;;;11.83;;
18738;SDS011;9498;51.862;19.460;2022-09-29T00:05:56;26.57;;;12.40;;
18738;SDS011;9498;51.862;19.460;2022-09-29T00:08:24;24.77;;;11.63;;
18738;SDS011;9498;51.862;19.460;2022-09-29T00:10:52;27.00;;;12.07;;
18738;SDS011;9498;51.862;19.460;2022-09-29T00:13:20;24.90;;;11.63;;
18738;SDS011;9498;51.862;19.460;2022-09-29T00:15:54;25.03;;;12.00;;
18738;SDS011;9498;51.862;19.460;2022-09-29T00:18:22;25.53;;;11.87;;
18738;SDS011;9498;51.862;19.460;2022-09-29T00:20:57;22.63;;;11.90;;
18738;SDS011;9498;51.862;19.460;2022-09-29T00:23:25;23.20;;;11.43;;
18738;SDS011;9498;51.862;19.460;2022-09-29T00:25:59;26.77;;;11.30;;
18738;SDS011;9498;51.862;19.460;2022-09-29T00:28:27;21.60;;;11.20;;
18738;SDS011;9498;51.862;19.460;2022-09-29T00:30:54;28.17;;;13.80;;
18738;SDS011;9498;51.862;19.460;2022-09-29T00:33:23;25.40;;;12.10;;
18738;SDS011;9498;51.862;19.460;2022-09-29T00:35:58;24.63;;;11.03;;
18738;SDS011;9498;51.862;19.460;2022-09-29T00:38:25;23.30;;;11.40;;
18738;SDS011;9498;51.862;19.460;2022-09-29T00:40:53;23.97;;;10.20;;
18738;SDS011;9498;51.862;19.460;2022-09-29T00:43:21;20.00;;;10.37;;
18738;SDS011;9498;51.862;19.460;2022-09-29T00:45:49;24.10;;;11.03;;
18738;SDS011;9498;51.862;19.460;2022-09-29T00:48:19;24.53;;;11.33;;
18738;SDS011;9498;51.862;19.460;2022-09-29T00:50:53;25.93;;;10.77;;
18738;SDS011;9498;51.862;19.460;2022-09-29T00:53:20;25.47;;;11.07;;
18738;SDS011;9498;51.862;19.460;2022-09-29T00:55:49;24.97;;;11.80;;
18738;SDS011;9498;51.862;19.460;2022-09-29T00:58:21;26.30;;;11.73;;
18738;SDS011;9498;51.862;19.460;2022-09-29T01:00:50;27.47;;;12.07;;
18738;SDS011;9498;51.862;19.460;2022-09-29T01:03:18;25.43;;;11.87;;
18738;SDS011;9498;51.862;19.460;2022-09-29T01:05:47;31.60;;;12.20;;
18738;SDS011;9498;51.862;19.460;2022-09-29T01:08:19;28.07;;;12.27;;
18738;SDS011;9498;51.862;19.460;2022-09-29T01:10:48;25.80;;;11.63;;
18738;SDS011;9498;51.862;19.460;2022-09-29T01:13:17;27.30;;;11.80;;
18738;SDS011;9498;51.862;19.460;2022-09-29T01:15:45;23.43;;;11.27;;
18738;SDS011;9498;51.862;19.460;2022-09-29T01:18:12;29.70;;;11.93;;
18738;SDS011;9498;51.862;19.460;2022-09-29T01:20:40;25.57;;;11.93;;
18738;SDS011;9498;51.862;19.460;2022-09-29T01:23:20;28.63;;;12.20;;
18738;SDS011;9498;51.862;19.460;2022-09-29T01:31:49;29.83;;;13.67;;
18738;SDS011;9498;51.862;19.460;2022-09-29T01:34:21;27.03;;;13.40;;
18738;SDS011;9498;51.862;19.460;2022-09-29T01:36:55;28.80;;;13.90;;
18738;SDS011;9498;51.862;19.460;2022-09-29T01:39:29;31.83;;;14.70;;
18738;SDS011;9498;51.862;19.460;2022-09-29T01:41:58;33.93;;;14.30;;
18738;SDS011;9498;51.862;19.460;2022-09-29T01:44:29;35.23;;;15.30;;
18738;SDS011;9498;51.862;19.460;2022-09-29T01:47:00;30.17;;;13.47;;
18738;SDS011;9498;51.862;19.460;2022-09-29T01:49:29;32.50;;;13.90;;
18738;SDS011;9498;51.862;19.460;2022-09-29T01:51:58;29.40;;;13.73;;
18738;SDS011;9498;51.862;19.460;2022-09-29T01:54:38;31.80;;;14.40;;
18738;SDS011;9498;51.862;19.460;2022-09-29T01:57:07;27.60;;;13.40;;
18738;SDS011;9498;51.862;19.460;2022-09-29T01:59:36;27.77;;;12.50;;
18738;SDS011;9498;51.862;19.460;2022-09-29T02:02:10;27.83;;;12.67;;
18738;SDS011;9498;51.862;19.460;2022-09-29T02:04:39;25.23;;;12.93;;
18738;SDS011;9498;51.862;19.460;2022-09-29T02:07:08;21.97;;;11.50;;
18738;SDS011;9498;51.862;19.460;2022-09-29T02:09:37;27.57;;;13.10;;
18738;SDS011;9498;51.862;19.460;2022-09-29T02:12:05;29.47;;;12.83;;
18738;SDS011;9498;51.862;19.460;2022-09-29T02:14:35;33.43;;;13.17;;
18738;SDS011;9498;51.862;19.460;2022-09-29T02:17:04;33.57;;;14.00;;
18738;SDS011;9498;51.862;19.460;2022-09-29T02:19:35;38.30;;;14.70;;
18738;SDS011;9498;51.862;19.460;2022-09-29T02:22:03;32.40;;;14.57;;
18738;SDS011;9498;51.862;19.460;2022-09-29T02:24:30;32.57;;;14.87;;
18738;SDS011;9498;51.862;19.460;2022-09-29T02:26:57;36.40;;;17.57;;
18738;SDS011;9498;51.862;19.460;2022-09-29T02:29:25;35.10;;;15.93;;
18738;SDS011;9498;51.862;19.460;2022-09-29T02:31:53;33.27;;;14.97;;
18738;SDS011;9498;51.862;19.460;2022-09-29T02:34:21;31.93;;;14.87;;
18738;SDS011;9498;51.862;19.460;2022-09-29T02:36:53;33.57;;;14.27;;
18738;SDS011;9498;51.862;19.460;2022-09-29T02:39:26;32.17;;;14.03;;
18738;SDS011;9498;51.862;19.460;2022-09-29T02:41:59;34.70;;;14.83;;
18738;SDS011;9498;51.862;19.460;2022-09-29T02:44:36;29.00;;;13.07;;
18738;SDS011;9498;51.862;19.460;2022-09-29T02:47:10;27.13;;;13.30;;
18738;SDS011;9498;51.862;19.460;2022-09-29T02:49:46;30.48;;;15.40;;
18738;SDS011;9498;51.862;19.460;2022-09-29T02:52:19;29.53;;;13.27;;
18738;SDS011;9498;51.862;19.460;2022-09-29T02:54:53;27.70;;;13.07;;
18738;SDS011;9498;51.862;19.460;2022-09-29T02:57:23;28.40;;;13.23;;
18738;SDS011;9498;51.862;19.460;2022-09-29T02:59:55;28.30;;;12.63;;
18738;SDS011;9498;51.862;19.460;2022-09-29T03:02:24;30.97;;;13.80;;
18738;SDS011;9498;51.862;19.460;2022-09-29T03:04:52;25.07;;;11.90;;
18738;SDS011;9498;51.862;19.460;2022-09-29T03:07:21;27.93;;;12.27;;
18738;SDS011;9498;51.862;19.460;2022-09-29T03:09:48;25.70;;;12.53;;
18738;SDS011;9498;51.862;19.460;2022-09-29T03:12:15;31.73;;;12.47;;
18738;SDS011;9498;51.862;19.460;2022-09-29T03:14:43;28.17;;;12.87;;
18738;SDS011;9498;51.862;19.460;2022-09-29T03:17:11;32.50;;;14.27;;
18738;SDS011;9498;51.862;19.460;2022-09-29T03:19:38;31.77;;;14.30;;
18738;SDS011;9498;51.862;19.460;2022-09-29T03:22:05;36.13;;;16.65;;
18738;SDS011;9498;51.862;19.460;2022-09-29T03:24:34;43.87;;;16.73;;
18738;SDS011;9498;51.862;19.460;2022-09-29T03:27:02;33.83;;;14.43;;
18738;SDS011;9498;51.862;19.460;2022-09-29T03:29:30;34.30;;;15.20;;
18738;SDS011;9498;51.862;19.460;2022-09-29T03:31:57;38.50;;;15.63;;
18738;SDS011;9498;51.862;19.460;2022-09-29T03:34:24;34.87;;;14.63;;
18738;SDS011;9498;51.862;19.460;2022-09-29T03:36:52;37.80;;;15.57;;
18738;SDS011;9498;51.862;19.460;2022-09-29T03:39:22;36.37;;;15.40;;
18738;SDS011;9498;51.862;19.460;2022-09-29T03:41:50;35.23;;;14.50;;
18738;SDS011;9498;51.862;19.460;2022-09-29T03:44:18;37.70;;;14.63;;
18738;SDS011;9498;51.862;19.460;2022-09-29T03:46:45;37.55;;;16.60;;
18738;SDS011;9498;51.862;19.460;2022-09-29T03:49:13;40.13;;;15.77;;
18738;SDS011;9498;51.862;19.460;2022-09-29T03:51:40;36.30;;;15.47;;
18738;SDS011;9498;51.862;19.460;2022-09-29T03:54:08;35.57;;;14.93;;
18738;SDS011;9498;51.862;19.460;2022-09-29T03:56:36;34.97;;;14.93;;
18738;SDS011;9498;51.862;19.460;2022-09-29T03:59:05;40.83;;;17.83;;
18738;SDS011;9498;51.862;19.460;2022-09-29T04:01:33;40.50;;;16.77;;
18738;SDS011;9498;51.862;19.460;2022-09-29T04:04:02;39.20;;;16.80;;
18738;SDS011;9498;51.862;19.460;2022-09-29T04:06:29;38.70;;;16.90;;
18738;SDS011;9498;51.862;19.460;2022-09-29T04:08:56;35.97;;;15.67;;
18738;SDS011;9498;51.862;19.460;2022-09-29T04:11:24;42.08;;;16.75;;
18738;SDS011;9498;51.862;19.460;2022-09-29T04:13:51;33.90;;;15.73;;
18738;SDS011;9498;51.862;19.460;2022-09-29T04:16:20;38.37;;;15.83;;
18738;SDS011;9498;51.862;19.460;2022-09-29T04:18:48;35.50;;;15.50;;
18738;SDS011;9498;51.862;19.460;2022-09-29T04:21:15;35.83;;;15.60;;
18738;SDS011;9498;51.862;19.460;2022-09-29T04:23:42;30.73;;;13.23;;
18738;SDS011;9498;51.862;19.460;2022-09-29T04:26:10;36.27;;;15.40;;
18738;SDS011;9498;51.862;19.460;2022-09-29T04:28:37;34.17;;;15.40;;
18738;SDS011;9498;51.862;19.460;2022-09-29T04:31:05;40.03;;;16.10;;
18738;SDS011;9498;51.862;19.460;2022-09-29T04:33:34;37.03;;;16.10;;
18738;SDS011;9498;51.862;19.460;2022-09-29T04:36:03;41.30;;;16.30;;
18738;SDS011;9498;51.862;19.460;2022-09-29T04:38:31;37.60;;;16.03;;
18738;SDS011;9498;51.862;19.460;2022-09-29T04:40:58;41.70;;;17.07;;
18738;SDS011;9498;51.862;19.460;2022-09-29T04:43:25;43.93;;;17.53;;
18738;SDS011;9498;51.862;19.460;2022-09-29T04:45:59;49.83;;;19.00;;
18738;SDS011;9498;51.862;19.460;2022-09-29T04:48:27;46.23;;;18.63;;
18738;SDS011;9498;51.862;19.460;2022-09-29T04:50:55;51.47;;;20.27;;
18738;SDS011;9498;51.862;19.460;2022-09-29T04:53:23;44.13;;;18.67;;
18738;SDS011;9498;51.862;19.460;2022-09-29T04:55:50;44.20;;;18.83;;
18738;SDS011;9498;51.862;19.460;2022-09-29T04:58:17;39.83;;;18.50;;
18738;SDS011;9498;51.862;19.460;2022-09-29T05:00:45;43.63;;;18.33;;
18738;SDS011;9498;51.862;19.460;2022-09-29T05:03:12;47.60;;;18.53;;
18738;SDS011;9498;51.862;19.460;2022-09-29T05:05:39;42.47;;;18.83;;
18738;SDS011;9498;51.862;19.460;2022-09-29T05:08:08;40.27;;;18.57;;
18738;SDS011;9498;51.862;19.460;2022-09-29T05:10:36;41.00;;;17.83;;
18738;SDS011;9498;51.862;19.460;2022-09-29T05:13:03;47.73;;;16.87;;
18738;SDS011;9498;51.862;19.460;2022-09-29T05:15:30;39.50;;;16.90;;
18738;SDS011;9498;51.862;19.460;2022-09-29T05:18:00;40.73;;;16.43;;
18738;SDS011;9498;51.862;19.460;2022-09-29T05:20:27;37.70;;;16.70;;
18738;SDS011;9498;51.862;19.460;2022-09-29T05:22:56;40.07;;;17.40;;
18738;SDS011;9498;51.862;19.460;2022-09-29T05:25:26;44.60;;;18.47;;
18738;SDS011;9498;51.862;19.460;2022-09-29T05:27:53;43.77;;;18.60;;
18738;SDS011;9498;51.862;19.460;2022-09-29T05:30:20;43.20;;;17.83;;
18738;SDS011;9498;51.862;19.460;2022-09-29T05:32:48;35.63;;;15.87;;
18738;SDS011;9498;51.862;19.460;2022-09-29T05:35:15;35.03;;;16.40;;
18738;SDS011;9498;51.862;19.460;2022-09-29T05:37:44;35.13;;;15.83;;
18738;SDS011;9498;51.862;19.460;2022-09-29T05:40:11;31.07;;;15.17;;
18738;SDS011;9498;51.862;19.460;2022-09-29T05:42:40;33.67;;;15.53;;
18738;SDS011;9498;51.862;19.460;2022-09-29T05:45:08;32.30;;;15.73;;
18738;SDS011;9498;51.862;19.460;2022-09-29T05:47:36;34.97;;;15.57;;
18738;SDS011;9498;51.862;19.460;2022-09-29T05:50:07;33.40;;;15.43;;
18738;SDS011;9498;51.862;19.460;2022-09-29T05:52:34;35.07;;;15.27;;
18738;SDS011;9498;51.862;19.460;2022-09-29T05:55:01;34.00;;;14.77;;
18738;SDS011;9498;51.862;19.460;2022-09-29T05:57:29;30.50;;;14.73;;
18738;SDS011;9498;51.862;19.460;2022-09-29T05:59:58;29.13;;;13.97;;
18738;SDS011;9498;51.862;19.460;2022-09-29T06:02:25;30.27;;;14.20;;
18738;SDS011;9498;51.862;19.460;2022-09-29T06:04:52;32.47;;;14.80;;
18738;SDS011;9498;51.862;19.460;2022-09-29T06:07:20;34.70;;;14.67;;
18738;SDS011;9498;51.862;19.460;2022-09-29T06:09:47;32.00;;;14.20;;
18738;SDS011;9498;51.862;19.460;2022-09-29T06:12:14;29.67;;;14.07;;
18738;SDS011;9498;51.862;19.460;2022-09-29T06:14:42;30.13;;;13.80;;
18738;SDS011;9498;51.862;19.460;2022-09-29T06:17:11;33.43;;;14.90;;
18738;SDS011;9498;51.862;19.460;2022-09-29T06:19:38;28.60;;;13.77;;
18738;SDS011;9498;51.862;19.460;2022-09-29T06:22:05;31.87;;;14.27;;
18738;SDS011;9498;51.862;19.460;2022-09-29T06:24:33;30.70;;;14.33;;
18738;SDS011;9498;51.862;19.460;2022-09-29T06:27:01;29.13;;;14.27;;
18738;SDS011;9498;51.862;19.460;2022-09-29T06:29:29;27.63;;;13.70;;
18738;SDS011;9498;51.862;19.460;2022-09-29T06:31:56;27.80;;;13.77;;
18738;SDS011;9498;51.862;19.460;2022-09-29T06:34:25;30.00;;;13.77;;
18738;SDS011;9498;51.862;19.460;2022-09-29T06:36:52;31.60;;;14.50;;
18738;SDS011;9498;51.862;19.460;2022-09-29T06:39:37;38.03;;;15.80;;
18738;SDS011;9498;51.862;19.460;2022-09-29T06:42:04;33.27;;;15.03;;
18738;SDS011;9498;51.862;19.460;2022-09-29T06:44:32;27.53;;;13.33;;
18738;SDS011;9498;51.862;19.460;2022-09-29T06:47:00;30.43;;;13.30;;
18738;SDS011;9498;51.862;19.460;2022-09-29T06:49:29;29.67;;;13.93;;
18738;SDS011;9498;51.862;19.460;2022-09-29T06:51:56;26.93;;;13.90;;
18738;SDS011;9498;51.862;19.460;2022-09-29T06:54:23;27.93;;;13.00;;
18738;SDS011;9498;51.862;19.460;2022-09-29T06:56:51;28.33;;;14.23;;
18738;SDS011;9498;51.862;19.460;2022-09-29T06:59:19;32.47;;;15.67;;
18738;SDS011;9498;51.862;19.460;2022-09-29T07:01:46;34.37;;;16.10;;
18738;SDS011;9498;51.862;19.460;2022-09-29T07:04:14;35.30;;;15.50;;
18738;SDS011;9498;51.862;19.460;2022-09-29T07:06:44;38.60;;;15.53;;
18738;SDS011;9498;51.862;19.460;2022-09-29T07:09:12;33.23;;;14.97;;
18738;SDS011;9498;51.862;19.460;2022-09-29T07:11:41;34.37;;;15.27;;
18738;SDS011;9498;51.862;19.460;2022-09-29T07:14:11;36.50;;;15.90;;
18738;SDS011;9498;51.862;19.460;2022-09-29T07:16:38;33.77;;;15.17;;
18738;SDS011;9498;51.862;19.460;2022-09-29T07:19:05;31.70;;;15.17;;
18738;SDS011;9498;51.862;19.460;2022-09-29T07:21:33;35.73;;;16.93;;
18738;SDS011;9498;51.862;19.460;2022-09-29T07:24:02;38.57;;;17.93;;
18738;SDS011;9498;51.862;19.460;2022-09-29T07:26:29;36.83;;;17.00;;
18738;SDS011;9498;51.862;19.460;2022-09-29T07:28:56;32.43;;;16.37;;
18738;SDS011;9498;51.862;19.460;2022-09-29T07:31:24;33.73;;;16.07;;
18738;SDS011;9498;51.862;19.460;2022-09-29T07:33:51;31.27;;;14.77;;
18738;SDS011;9498;51.862;19.460;2022-09-29T07:36:19;34.20;;;16.77;;
18738;SDS011;9498;51.862;19.460;2022-09-29T07:38:47;36.97;;;16.77;;
18738;SDS011;9498;51.862;19.460;2022-09-29T07:41:16;33.53;;;16.63;;
18738;SDS011;9498;51.862;19.460;2022-09-29T07:43:44;34.43;;;17.10;;
18738;SDS011;9498;51.862;19.460;2022-09-29T07:46:11;37.43;;;17.27;;
18738;SDS011;9498;51.862;19.460;2022-09-29T07:48:38;36.87;;;16.53;;
18738;SDS011;9498;51.862;19.460;2022-09-29T07:51:07;31.50;;;15.77;;
18738;SDS011;9498;51.862;19.460;2022-09-29T07:53:34;31.47;;;15.43;;
18738;SDS011;9498;51.862;19.460;2022-09-29T07:56:02;32.43;;;16.40;;
18738;SDS011;9498;51.862;19.460;2022-09-29T07:58:31;28.63;;;14.57;;
18738;SDS011;9498;51.862;19.460;2022-09-29T08:00:59;34.10;;;16.40;;
18738;SDS011;9498;51.862;19.460;2022-09-29T08:03:28;31.43;;;15.53;;
18738;SDS011;9498;51.862;19.460;2022-09-29T08:05:55;29.23;;;14.97;;
18738;SDS011;9498;51.862;19.460;2022-09-29T08:08:23;30.03;;;15.03;;
18738;SDS011;9498;51.862;19.460;2022-09-29T08:10:51;34.87;;;16.57;;
18738;SDS011;9498;51.862;19.460;2022-09-29T08:13:18;34.33;;;15.80;;
18738;SDS011;9498;51.862;19.460;2022-09-29T08:15:47;31.47;;;15.40;;
18738;SDS011;9498;51.862;19.460;2022-09-29T08:18:14;30.43;;;15.47;;
18738;SDS011;9498;51.862;19.460;2022-09-29T08:20:41;29.23;;;14.67;;
18738;SDS011;9498;51.862;19.460;2022-09-29T08:23:09;29.93;;;14.57;;
18738;SDS011;9498;51.862;19.460;2022-09-29T08:25:36;26.53;;;14.40;;
18738;SDS011;9498;51.862;19.460;2022-09-29T08:28:03;25.40;;;14.17;;
18738;SDS011;9498;51.862;19.460;2022-09-29T08:30:31;25.27;;;13.50;;
18738;SDS011;9498;51.862;19.460;2022-09-29T08:32:59;31.57;;;14.30;;
18738;SDS011;9498;51.862;19.460;2022-09-29T08:35:28;30.10;;;14.60;;
18738;SDS011;9498;51.862;19.460;2022-09-29T08:37:55;28.60;;;14.50;;
18738;SDS011;9498;51.862;19.460;2022-09-29T08:40:26;27.53;;;14.13;;
18738;SDS011;9498;51.862;19.460;2022-09-29T08:42:56;26.37;;;14.17;;
18738;SDS011;9498;51.862;19.460;2022-09-29T08:45:26;25.50;;;13.83;;
18738;SDS011;9498;51.862;19.460;2022-09-29T08:47:54;31.73;;;14.67;;
18738;SDS011;9498;51.862;19.460;2022-09-29T08:50:26;33.17;;;17.00;;
18738;SDS011;9498;51.862;19.460;2022-09-29T08:52:56;30.80;;;15.70;;
18738;SDS011;9498;51.862;19.460;2022-09-29T08:55:26;28.47;;;15.53;;
18738;SDS011;9498;51.862;19.460;2022-09-29T08:57:56;32.10;;;15.40;;
18738;SDS011;9498;51.862;19.460;2022-09-29T09:00:26;30.30;;;14.10;;
18738;SDS011;9498;51.862;19.460;2022-09-29T09:03:02;26.80;;;13.67;;
18738;SDS011;9498;51.862;19.460;2022-09-29T09:05:47;28.93;;;14.50;;
18738;SDS011;9498;51.862;19.460;2022-09-29T09:08:21;30.50;;;15.90;;
18738;SDS011;9498;51.862;19.460;2022-09-29T09:10:55;29.93;;;15.27;;
18738;SDS011;9498;51.862;19.460;2022-09-29T09:13:29;27.50;;;13.30;;
18738;SDS011;9498;51.862;19.460;2022-09-29T09:16:06;28.60;;;13.97;;
18738;SDS011;9498;51.862;19.460;2022-09-29T09:18:40;28.47;;;13.93;;
18738;SDS011;9498;51.862;19.460;2022-09-29T09:21:13;23.20;;;11.70;;
18738;SDS011;9498;51.862;19.460;2022-09-29T09:23:46;19.77;;;10.33;;
18738;SDS011;9498;51.862;19.460;2022-09-29T09:26:15;23.90;;;11.87;;
18738;SDS011;9498;51.862;19.460;2022-09-29T09:28:44;20.50;;;10.70;;
18738;SDS011;9498;51.862;19.460;2022-09-29T09:31:15;18.13;;;9.87;;
18738;SDS011;9498;51.862;19.460;2022-09-29T09:33:43;15.50;;;8.37;;
18738;SDS011;9498;51.862;19.460;2022-09-29T09:36:15;12.30;;;7.67;;
18738;SDS011;9498;51.862;19.460;2022-09-29T09:38:45;22.03;;;9.87;;
18738;SDS011;9498;51.862;19.460;2022-09-29T09:41:14;17.87;;;9.70;;
18738;SDS011;9498;51.862;19.460;2022-09-29T09:43:43;18.63;;;8.87;;
18738;SDS011;9498;51.862;19.460;2022-09-29T09:46:13;14.73;;;7.70;;
18738;SDS011;9498;51.862;19.460;2022-09-29T09:48:45;15.37;;;8.43;;
18738;SDS011;9498;51.862;19.460;2022-09-29T09:51:28;13.30;;;7.43;;
18738;SDS011;9498;51.862;19.460;2022-09-29T09:53:58;12.10;;;7.10;;
18738;SDS011;9498;51.862;19.460;2022-09-29T09:56:30;11.17;;;6.77;;
18738;SDS011;9498;51.862;19.460;2022-09-29T09:59:05;11.50;;;6.13;;
18738;SDS011;9498;51.862;19.460;2022-09-29T10:01:37;12.00;;;6.90;;
18738;SDS011;9498;51.862;19.460;2022-09-29T10:04:04;15.10;;;6.97;;
18738;SDS011;9498;51.862;19.460;2022-09-29T10:06:33;14.27;;;7.87;;
18738;SDS011;9498;51.862;19.460;2022-09-29T10:09:01;15.73;;;8.67;;
18738;SDS011;9498;51.862;19.460;2022-09-29T10:11:29;11.30;;;7.03;;
18738;SDS011;9498;51.862;19.460;2022-09-29T10:13:57;11.50;;;6.63;;
18738;SDS011;9498;51.862;19.460;2022-09-29T10:16:27;13.70;;;7.20;;
18738;SDS011;9498;51.862;19.460;2022-09-29T10:18:57;10.30;;;6.85;;
18738;SDS011;9498;51.862;19.460;2022-09-29T10:21:35;13.25;;;7.68;;
18738;SDS011;9498;51.862;19.460;2022-09-29T10:24:03;8.97;;;6.20;;
18738;SDS011;9498;51.862;19.460;2022-09-29T10:26:33;9.17;;;5.83;;
18738;SDS011;9498;51.862;19.460;2022-09-29T10:29:15;19.37;;;7.07;;
18738;SDS011;9498;51.862;19.460;2022-09-29T10:31:42;11.20;;;6.00;;
18738;SDS011;9498;51.862;19.460;2022-09-29T10:34:14;10.07;;;6.33;;
18738;SDS011;9498;51.862;19.460;2022-09-29T10:36:47;11.70;;;6.63;;
18738;SDS011;9498;51.862;19.460;2022-09-29T10:39:28;10.77;;;5.87;;
18738;SDS011;9498;51.862;19.460;2022-09-29T10:41:56;7.70;;;5.30;;
18738;SDS011;9498;51.862;19.460;2022-09-29T10:44:24;7.87;;;4.50;;
18738;SDS011;9498;51.862;19.460;2022-09-29T10:46:56;10.13;;;5.63;;
18738;SDS011;9498;51.862;19.460;2022-09-29T10:49:24;11.70;;;5.77;;
18738;SDS011;9498;51.862;19.460;2022-09-29T10:51:55;10.13;;;5.47;;
18738;SDS011;9498;51.862;19.460;2022-09-29T10:54:24;12.20;;;5.67;;
18738;SDS011;9498;51.862;19.460;2022-09-29T10:56:53;9.30;;;4.70;;
18738;SDS011;9498;51.862;19.460;2022-09-29T10:59:20;10.33;;;5.87;;
18738;SDS011;9498;51.862;19.460;2022-09-29T11:01:49;8.07;;;4.97;;
18738;SDS011;9498;51.862;19.460;2022-09-29T11:04:18;8.03;;;4.40;;
18738;SDS011;9498;51.862;19.460;2022-09-29T11:06:46;7.90;;;4.07;;
18738;SDS011;9498;51.862;19.460;2022-09-29T11:12:00;5.93;;;3.90;;
18738;SDS011;9498;51.862;19.460;2022-09-29T11:14:28;6.97;;;3.50;;
18738;SDS011;9498;51.862;19.460;2022-09-29T11:16:57;5.50;;;3.50;;
18738;SDS011;9498;51.862;19.460;2022-09-29T11:19:25;4.77;;;3.40;;
18738;SDS011;9498;51.862;19.460;2022-09-29T11:27:48;4.13;;;2.63;;
18738;SDS011;9498;51.862;19.460;2022-09-29T11:30:18;2.23;;;1.90;;
18738;SDS011;9498;51.862;19.460;2022-09-29T11:32:51;2.80;;;1.83;;
18738;SDS011;9498;51.862;19.460;2022-09-29T11:35:25;2.47;;;1.80;;
18738;SDS011;9498;51.862;19.460;2022-09-29T11:37:58;3.63;;;2.47;;
18738;SDS011;9498;51.862;19.460;2022-09-29T11:40:31;3.10;;;2.00;;
18738;SDS011;9498;51.862;19.460;2022-09-29T11:43:08;4.03;;;2.53;;
18738;SDS011;9498;51.862;19.460;2022-09-29T11:45:40;4.57;;;2.37;;
18738;SDS011;9498;51.862;19.460;2022-09-29T11:51:02;2.80;;;2.20;;
18738;SDS011;9498;51.862;19.460;2022-09-29T11:53:38;2.53;;;2.17;;
18738;SDS011;9498;51.862;19.460;2022-09-29T11:56:15;3.90;;;2.00;;
18738;SDS011;9498;51.862;19.460;2022-09-29T11:58:54;4.57;;;2.33;;
18738;SDS011;9498;51.862;19.460;2022-09-29T12:01:25;3.80;;;2.10;;
18738;SDS011;9498;51.862;19.460;2022-09-29T12:04:00;5.20;;;2.00;;
18738;SDS011;9498;51.862;19.460;2022-09-29T12:06:37;5.90;;;2.30;;
18738;SDS011;9498;51.862;19.460;2022-09-29T12:09:18;5.40;;;2.20;;
18738;SDS011;9498;51.862;19.460;2022-09-29T12:11:51;2.50;;;1.80;;
18738;SDS011;9498;51.862;19.460;2022-09-29T12:14:23;5.47;;;2.20;;
18738;SDS011;9498;51.862;19.460;2022-09-29T12:16:55;3.13;;;2.20;;
18738;SDS011;9498;51.862;19.460;2022-09-29T12:19:23;3.53;;;2.17;;
18738;SDS011;9498;51.862;19.460;2022-09-29T12:21:53;2.90;;;2.20;;
18738;SDS011;9498;51.862;19.460;2022-09-29T12:24:34;3.90;;;1.93;;
18738;SDS011;9498;51.862;19.460;2022-09-29T12:27:03;4.50;;;2.03;;
18738;SDS011;9498;51.862;19.460;2022-09-29T12:29:33;2.87;;;2.03;;
18738;SDS011;9498;51.862;19.460;2022-09-29T12:32:03;3.03;;;2.07;;
18738;SDS011;9498;51.862;19.460;2022-09-29T12:34:34;2.67;;;1.90;;
18738;SDS011;9498;51.862;19.460;2022-09-29T12:37:04;3.67;;;1.70;;
18738;SDS011;9498;51.862;19.460;2022-09-29T12:39:36;4.27;;;1.83;;
18738;SDS011;9498;51.862;19.460;2022-09-29T12:45:04;5.40;;;2.10;;
18738;SDS011;9498;51.862;19.460;2022-09-29T12:47:47;3.20;;;2.10;;
18738;SDS011;9498;51.862;19.460;2022-09-29T12:50:17;3.97;;;2.30;;
18738;SDS011;9498;51.862;19.460;2022-09-29T12:52:45;5.30;;;2.13;;
18738;SDS011;9498;51.862;19.460;2022-09-29T12:55:17;4.47;;;1.87;;
18738;SDS011;9498;51.862;19.460;2022-09-29T12:57:45;3.70;;;2.10;;
18738;SDS011;9498;51.862;19.460;2022-09-29T13:00:15;3.43;;;2.10;;
18738;SDS011;9498;51.862;19.460;2022-09-29T13:05:37;6.40;;;2.90;;
18738;SDS011;9498;51.862;19.460;2022-09-29T13:11:13;4.57;;;2.17;;
18738;SDS011;9498;51.862;19.460;2022-09-29T13:13:56;2.80;;;2.07;;
18738;SDS011;9498;51.862;19.460;2022-09-29T13:22:04;5.43;;;2.90;;
18738;SDS011;9498;51.862;19.460;2022-09-29T13:24:40;6.87;;;2.77;;
18738;SDS011;9498;51.862;19.460;2022-09-29T13:29:59;4.13;;;2.47;;
18738;SDS011;9498;51.862;19.460;2022-09-29T13:32:26;5.03;;;2.50;;
18738;SDS011;9498;51.862;19.460;2022-09-29T13:34:54;4.70;;;2.80;;
18738;SDS011;9498;51.862;19.460;2022-09-29T13:37:25;3.97;;;2.40;;
18738;SDS011;9498;51.862;19.460;2022-09-29T13:39:54;3.50;;;2.47;;
18738;SDS011;9498;51.862;19.460;2022-09-29T13:42:27;3.70;;;2.30;;
18738;SDS011;9498;51.862;19.460;2022-09-29T13:45:33;3.73;;;2.13;;
18738;SDS011;9498;51.862;19.460;2022-09-29T13:48:09;2.70;;;2.00;;
18738;SDS011;9498;51.862;19.460;2022-09-29T13:50:49;6.20;;;2.20;;
18738;SDS011;9498;51.862;19.460;2022-09-29T13:53:32;3.60;;;2.07;;
18738;SDS011;9498;51.862;19.460;2022-09-29T13:56:10;2.53;;;1.80;;
18738;SDS011;9498;51.862;19.460;2022-09-29T13:58:52;8.30;;;2.42;;
18738;SDS011;9498;51.862;19.460;2022-09-29T14:01:30;2.43;;;1.63;;
18738;SDS011;9498;51.862;19.460;2022-09-29T14:06:43;2.23;;;1.70;;
18738;SDS011;9498;51.862;19.460;2022-09-29T14:09:16;4.90;;;1.87;;
18738;SDS011;9498;51.862;19.460;2022-09-29T14:11:48;2.73;;;1.73;;
18738;SDS011;9498;51.862;19.460;2022-09-29T14:14:18;2.30;;;1.77;;
18738;SDS011;9498;51.862;19.460;2022-09-29T14:16:52;3.77;;;2.00;;
18738;SDS011;9498;51.862;19.460;2022-09-29T14:19:30;2.87;;;1.90;;
18738;SDS011;9498;51.862;19.460;2022-09-29T14:21:58;3.00;;;1.93;;
18738;SDS011;9498;51.862;19.460;2022-09-29T14:24:45;2.97;;;2.00;;
18738;SDS011;9498;51.862;19.460;2022-09-29T14:27:22;2.90;;;2.20;;
18738;SDS011;9498;51.862;19.460;2022-09-29T14:29:53;3.20;;;1.87;;
18738;SDS011;9498;51.862;19.460;2022-09-29T14:32:27;3.97;;;1.87;;
18738;SDS011;9498;51.862;19.460;2022-09-29T14:34:57;4.93;;;2.23;;
18738;SDS011;9498;51.862;19.460;2022-09-29T14:37:25;3.60;;;1.80;;
18738;SDS011;9498;51.862;19.460;2022-09-29T14:39:54;3.20;;;1.97;;
18738;SDS011;9498;51.862;19.460;2022-09-29T14:42:39;3.90;;;1.87;;
18738;SDS011;9498;51.862;19.460;2022-09-29T14:45:07;4.23;;;2.40;;
18738;SDS011;9498;51.862;19.460;2022-09-29T14:47:53;6.73;;;2.33;;
18738;SDS011;9498;51.862;19.460;2022-09-29T14:50:47;7.03;;;2.20;;
18738;SDS011;9498;51.862;19.460;2022-09-29T14:53:43;4.23;;;2.20;;
18738;SDS011;9498;51.862;19.460;2022-09-29T14:56:19;3.90;;;2.00;;
18738;SDS011;9498;51.862;19.460;2022-09-29T14:58:53;4.83;;;2.37;;
18738;SDS011;9498;51.862;19.460;2022-09-29T15:01:24;5.20;;;2.87;;
18738;SDS011;9498;51.862;19.460;2022-09-29T15:03:53;4.10;;;2.40;;
18738;SDS011;9498;51.862;19.460;2022-09-29T15:06:23;4.20;;;2.60;;
18738;SDS011;9498;51.862;19.460;2022-09-29T15:08:54;4.13;;;2.57;;
18738;SDS011;9498;51.862;19.460;2022-09-29T15:11:27;3.33;;;2.30;;
18738;SDS011;9498;51.862;19.460;2022-09-29T15:13:55;6.97;;;2.20;;
18738;SDS011;9498;51.862;19.460;2022-09-29T15:16:24;3.93;;;2.47;;
18738;SDS011;9498;51.862;19.460;2022-09-29T15:19:09;4.10;;;2.70;;
18738;SDS011;9498;51.862;19.460;2022-09-29T15:21:41;5.27;;;2.70;;
18738;SDS011;9498;51.862;19.460;2022-09-29T15:24:20;4.73;;;2.80;;
18738;SDS011;9498;51.862;19.460;2022-09-29T15:26:53;6.67;;;2.80;;